createdAt,value
2017-10-19T00:00:29.668Z,13.00
2017-10-19T00:02:59.096Z,12.10
2017-10-19T00:05:28.331Z,12.20
2017-10-19T00:07:58.311Z,12.50
2017-10-19T00:10:27.530Z,12.50
2017-10-19T00:12:57.520Z,12.90
2017-10-19T00:15:26.760Z,13.30
2017-10-19T00:17:56.744Z,12.50
2017-10-19T00:20:26.149Z,12.93
2017-10-19T00:22:55.389Z,13.90
2017-10-19T00:25:24.611Z,12.70
2017-10-19T00:27:53.822Z,14.03
2017-10-19T00:30:23.091Z,11.60
2017-10-19T00:32:52.318Z,12.80
2017-10-19T00:35:21.532Z,12.73
2017-10-19T00:37:50.769Z,12.90
2017-10-19T00:40:20.749Z,13.17
2017-10-19T00:42:50.022Z,12.97
2017-10-19T00:45:19.237Z,12.90
2017-10-19T00:47:49.036Z,14.70
2017-10-19T00:50:18.278Z,13.23
2017-10-19T00:52:48.264Z,13.47
2017-10-19T00:55:17.500Z,12.13
2017-10-19T00:57:47.597Z,14.20
2017-10-19T01:00:16.836Z,13.60
2017-10-19T01:02:46.061Z,15.00
2017-10-19T01:05:15.274Z,15.10
2017-10-19T01:07:44.501Z,14.87
2017-10-19T01:10:14.489Z,13.40
2017-10-19T01:12:43.764Z,13.60
2017-10-19T01:15:12.980Z,13.73
2017-10-19T01:17:42.213Z,13.17
2017-10-19T01:20:12.268Z,14.63
2017-10-19T01:22:41.509Z,13.20
2017-10-19T01:25:10.724Z,14.00
2017-10-19T01:27:40.820Z,13.30
2017-10-19T01:30:10.064Z,14.83
2017-10-19T01:32:39.263Z,14.53
2017-10-19T01:35:08.492Z,13.80
2017-10-19T01:37:37.758Z,15.47
2017-10-19T01:40:06.972Z,15.40
2017-10-19T01:42:36.176Z,14.17
2017-10-19T01:45:05.397Z,15.93
2017-10-19T01:47:34.587Z,15.10
2017-10-19T01:50:03.835Z,15.37
2017-10-19T01:52:33.044Z,15.93
2017-10-19T01:55:02.360Z,15.60
2017-10-19T01:57:31.571Z,15.13
2017-10-19T02:00:00.783Z,14.20
2017-10-19T02:02:29.999Z,13.97
2017-10-19T02:04:59.229Z,15.10
2017-10-19T02:07:28.445Z,15.37
2017-10-19T02:09:57.646Z,15.40
2017-10-19T02:12:26.948Z,14.33
2017-10-19T02:14:56.162Z,15.80
2017-10-19T02:17:25.368Z,16.40
2017-10-19T02:19:54.599Z,15.70
2017-10-19T02:22:24.563Z,15.77
2017-10-19T02:24:53.830Z,15.40
2017-10-19T02:27:23.032Z,16.77
2017-10-19T02:29:52.260Z,16.10
2017-10-19T02:32:21.574Z,16.00
2017-10-19T02:34:50.819Z,16.33
2017-10-19T02:37:20.042Z,16.43
2017-10-19T02:39:49.435Z,16.97
2017-10-19T02:42:18.654Z,16.10
2017-10-19T02:44:47.852Z,16.73
2017-10-19T02:47:17.079Z,16.97
2017-10-19T02:49:46.312Z,15.90
2017-10-19T02:52:15.652Z,16.27
2017-10-19T02:54:44.851Z,16.93
2017-10-19T02:57:14.071Z,16.17
2017-10-19T02:59:43.291Z,17.90
2017-10-19T03:02:13.277Z,16.47
2017-10-19T03:04:42.490Z,16.23
2017-10-19T03:07:13.296Z,17.23
2017-10-19T03:09:42.504Z,15.50
2017-10-19T03:12:11.969Z,17.23
2017-10-19T03:14:41.194Z,16.27
2017-10-19T03:17:10.537Z,16.87
2017-10-19T03:19:39.924Z,17.63
2017-10-19T03:22:09.131Z,16.23
2017-10-19T03:24:39.110Z,15.50
2017-10-19T03:27:08.331Z,16.60
2017-10-19T03:29:37.558Z,16.53
2017-10-19T03:32:06.767Z,15.43
2017-10-19T03:34:35.984Z,16.87
2017-10-19T03:37:05.267Z,16.77
2017-10-19T03:39:34.514Z,17.70
2017-10-19T03:42:03.759Z,17.90
2017-10-19T03:44:33.015Z,16.90
2017-10-19T03:47:02.220Z,16.53
2017-10-19T03:49:31.435Z,16.90
2017-10-19T03:52:01.416Z,17.00
2017-10-19T03:54:30.639Z,17.27
2017-10-19T03:57:00.628Z,17.30
2017-10-19T03:59:29.836Z,16.60
2017-10-19T04:01:59.040Z,16.63
2017-10-19T04:04:28.257Z,17.80
2017-10-19T04:06:58.244Z,16.43
2017-10-19T04:09:27.454Z,16.37
2017-10-19T04:11:57.443Z,17.40
2017-10-19T04:14:26.909Z,17.10
2017-10-19T04:16:56.107Z,15.10
2017-10-19T04:19:25.327Z,17.87
2017-10-19T04:21:54.539Z,17.00
2017-10-19T04:24:23.910Z,17.70
2017-10-19T04:26:53.226Z,17.13
2017-10-19T04:29:22.430Z,17.40
2017-10-19T04:31:51.955Z,16.63
2017-10-19T04:34:21.167Z,17.77
2017-10-19T04:36:50.374Z,16.93
2017-10-19T04:39:20.340Z,17.60
2017-10-19T04:41:49.567Z,16.97
2017-10-19T04:44:18.781Z,17.47
2017-10-19T04:46:48.759Z,17.70
2017-10-19T04:49:18.033Z,17.20
2017-10-19T04:51:47.325Z,18.17
2017-10-19T04:54:16.542Z,16.77
2017-10-19T04:56:46.076Z,17.93
2017-10-19T04:59:15.280Z,15.70
2017-10-19T05:01:44.495Z,17.60
2017-10-19T05:04:14.503Z,17.70
2017-10-19T05:06:44.479Z,16.77
2017-10-19T05:09:13.688Z,17.37
2017-10-19T05:11:42.898Z,17.07
2017-10-19T05:14:12.112Z,17.83
2017-10-19T05:16:42.085Z,17.20
2017-10-19T05:19:11.310Z,18.60
2017-10-19T05:21:40.520Z,17.47
2017-10-19T05:24:10.511Z,17.93
2017-10-19T05:26:39.742Z,17.33
2017-10-19T05:29:09.717Z,17.80
2017-10-19T05:31:38.944Z,16.73
2017-10-19T05:34:08.179Z,19.03
2017-10-19T05:36:37.377Z,18.67
2017-10-19T05:39:06.645Z,17.20
2017-10-19T05:41:35.876Z,17.73
2017-10-19T05:44:05.077Z,19.47
2017-10-19T05:46:34.295Z,17.97
2017-10-19T05:49:03.651Z,17.90
2017-10-19T05:51:33.669Z,18.10
2017-10-19T05:54:03.637Z,18.00
2017-10-19T05:56:32.842Z,18.57
2017-10-19T05:59:02.919Z,17.40
2017-10-19T06:01:32.132Z,20.23
2017-10-19T06:04:01.460Z,18.07
2017-10-19T06:06:30.700Z,17.93
2017-10-19T06:08:59.906Z,18.53
2017-10-19T06:11:29.106Z,17.47
2017-10-19T06:13:58.321Z,18.37
2017-10-19T06:16:27.524Z,18.27
2017-10-19T06:18:56.758Z,18.33
2017-10-19T06:21:26.730Z,19.30
2017-10-19T06:23:55.955Z,18.03
2017-10-19T06:26:25.183Z,18.40
2017-10-19T06:28:55.173Z,18.40
2017-10-19T06:31:24.409Z,18.03
2017-10-19T06:33:53.591Z,19.60
2017-10-19T06:36:23.614Z,17.70
2017-10-19T06:38:53.568Z,19.20
2017-10-19T06:41:22.977Z,17.90
2017-10-19T06:43:52.207Z,17.40
2017-10-19T06:46:21.408Z,19.30
2017-10-19T06:48:50.591Z,19.17
2017-10-19T06:51:19.856Z,19.77
2017-10-19T06:53:49.063Z,17.47
2017-10-19T06:56:18.266Z,20.10
2017-10-19T06:58:47.546Z,17.40
2017-10-19T07:01:16.770Z,18.30
2017-10-19T07:03:46.016Z,17.77
2017-10-19T07:06:15.226Z,18.20
2017-10-19T07:08:44.462Z,16.27
2017-10-19T07:11:13.725Z,16.90
2017-10-19T07:13:42.916Z,17.63
2017-10-19T07:16:12.898Z,16.83
2017-10-19T07:31:47.892Z,16.20
2017-10-19T07:34:17.199Z,16.43
2017-10-19T07:36:46.423Z,17.13
2017-10-19T07:39:16.431Z,16.90
2017-10-19T07:41:46.429Z,16.07
2017-10-19T07:44:15.641Z,14.87
2017-10-19T07:46:44.852Z,16.37
2017-10-19T07:49:14.803Z,15.03
2017-10-19T07:51:44.028Z,16.30
2017-10-19T07:54:13.246Z,16.20
2017-10-19T07:56:42.484Z,16.00
2017-10-19T07:59:11.693Z,16.37
2017-10-19T08:01:40.895Z,15.13
2017-10-19T08:04:10.175Z,16.23
2017-10-19T08:06:40.239Z,16.43
2017-10-19T08:09:09.465Z,15.80
2017-10-19T08:11:39.426Z,15.70
2017-10-19T08:14:08.666Z,14.80
2017-10-19T08:16:37.879Z,15.40
2017-10-19T08:19:07.869Z,16.13
2017-10-19T08:21:38.647Z,13.73
2017-10-19T08:24:07.866Z,14.70
2017-10-19T08:26:37.167Z,14.00
2017-10-19T08:29:06.385Z,14.53
2017-10-19T08:31:35.708Z,14.50
2017-10-19T08:34:04.979Z,14.63
2017-10-19T08:36:34.213Z,14.93
2017-10-19T08:39:04.177Z,15.30
2017-10-19T08:41:33.395Z,13.37
2017-10-19T08:44:02.622Z,14.57
2017-10-19T08:46:31.825Z,13.87
2017-10-19T08:49:01.916Z,13.87
2017-10-19T08:51:31.137Z,13.90
2017-10-19T08:54:01.140Z,14.57
2017-10-19T08:56:31.137Z,14.03
2017-10-19T08:59:00.343Z,14.60
2017-10-19T09:01:29.565Z,15.23
2017-10-19T09:03:59.559Z,14.60
2017-10-19T09:06:28.767Z,13.30
2017-10-19T09:08:58.000Z,14.30
2017-10-19T09:11:27.213Z,14.17
2017-10-19T09:13:56.432Z,13.90
2017-10-19T09:16:25.633Z,13.80
2017-10-19T09:18:54.922Z,13.97
2017-10-19T09:21:24.131Z,12.50
2017-10-19T09:23:53.342Z,13.70
2017-10-19T09:26:22.567Z,12.63
2017-10-19T09:28:52.543Z,11.87
2017-10-19T09:31:21.744Z,11.50
2017-10-19T09:33:51.060Z,12.30
2017-10-19T09:36:20.264Z,12.97
2017-10-19T09:38:50.247Z,12.13
2017-10-19T09:41:19.517Z,12.47
2017-10-19T09:43:48.851Z,12.23
2017-10-19T09:46:18.048Z,11.70
2017-10-19T09:48:47.258Z,11.77
2017-10-19T09:51:16.471Z,12.90
2017-10-19T09:53:45.679Z,11.17
2017-10-19T09:56:15.713Z,11.70
2017-10-19T09:58:44.922Z,10.13
2017-10-19T10:01:14.140Z,11.30
2017-10-19T10:03:43.348Z,12.00
2017-10-19T10:06:12.571Z,11.73
2017-10-19T10:08:41.797Z,11.40
2017-10-19T10:11:11.016Z,11.50
2017-10-19T10:13:40.232Z,11.53
2017-10-19T10:16:09.449Z,11.77
2017-10-19T10:18:38.665Z,10.93
2017-10-19T10:21:08.633Z,11.43
2017-10-19T10:23:38.039Z,11.73
2017-10-19T10:26:07.250Z,11.80
2017-10-19T10:28:36.464Z,10.00
2017-10-19T10:31:05.856Z,10.80
2017-10-19T10:33:35.068Z,12.50
2017-10-19T10:36:04.312Z,11.50
2017-10-19T10:38:33.512Z,10.47
2017-10-19T10:41:02.823Z,10.70
2017-10-19T10:43:32.048Z,10.10
2017-10-19T10:46:01.264Z,9.90
2017-10-19T10:48:30.478Z,11.20
2017-10-19T10:51:00.482Z,9.87
2017-10-19T10:53:29.693Z,10.13
2017-10-19T10:55:59.881Z,10.20
2017-10-19T10:58:29.103Z,11.40
2017-10-19T11:00:59.093Z,10.93
2017-10-19T11:03:28.356Z,9.87
2017-10-19T11:05:57.744Z,9.93
2017-10-19T11:08:26.937Z,9.47
2017-10-19T11:10:56.147Z,10.27
2017-10-19T11:13:25.389Z,8.90
2017-10-19T11:15:54.576Z,9.13
2017-10-19T11:18:23.837Z,8.60
2017-10-19T11:20:53.073Z,7.93
2017-10-19T11:23:22.276Z,8.60
2017-10-19T11:25:51.496Z,9.30
2017-10-19T11:28:21.657Z,9.30
2017-10-19T11:30:50.880Z,8.87
2017-10-19T11:33:20.110Z,9.03
2017-10-19T11:35:50.119Z,9.67
2017-10-19T11:38:19.304Z,8.60
2017-10-19T11:40:48.559Z,8.50
2017-10-19T11:43:17.800Z,8.97
2017-10-19T11:45:47.026Z,8.40
2017-10-19T11:48:16.232Z,8.00
2017-10-19T11:50:45.571Z,8.57
2017-10-19T11:53:14.824Z,8.67
2017-10-19T11:55:44.812Z,7.57
2017-10-19T11:58:14.014Z,8.10
2017-10-19T12:00:43.208Z,8.70
2017-10-19T12:03:12.678Z,8.50
2017-10-19T12:05:41.903Z,8.13
2017-10-19T12:08:11.471Z,8.10
2017-10-19T12:10:40.678Z,8.67
2017-10-19T12:13:09.878Z,8.20
2017-10-19T12:15:39.083Z,7.90
2017-10-19T12:18:08.287Z,8.23
2017-10-19T12:20:37.514Z,7.33
2017-10-19T12:23:07.509Z,8.30
2017-10-19T12:25:36.756Z,7.90
2017-10-19T12:28:06.751Z,7.53
2017-10-19T12:30:36.719Z,7.40
2017-10-19T12:33:05.927Z,7.03
2017-10-19T12:35:35.137Z,7.77
2017-10-19T12:38:04.339Z,7.53
2017-10-19T12:40:34.332Z,7.93
2017-10-19T12:43:04.649Z,8.50
2017-10-19T12:45:33.928Z,7.97
2017-10-19T12:48:03.215Z,7.93
2017-10-19T12:50:32.420Z,7.90
2017-10-19T12:53:01.705Z,7.00
2017-10-19T12:55:30.922Z,7.20
2017-10-19T12:58:00.226Z,7.70
2017-10-19T13:00:29.747Z,5.87
2017-10-19T13:02:58.935Z,6.80
2017-10-19T13:05:28.153Z,5.80
2017-10-19T13:07:57.378Z,6.30
2017-10-19T13:10:27.631Z,6.93
2017-10-19T13:12:57.679Z,7.03
2017-10-19T13:15:26.935Z,6.83
2017-10-19T13:17:57.109Z,5.87
2017-10-19T13:20:29.453Z,6.53
2017-10-19T13:23:01.695Z,5.77
2017-10-19T13:25:30.916Z,5.90
2017-10-19T13:28:00.147Z,6.93
2017-10-19T13:30:29.337Z,6.50
2017-10-19T13:32:58.576Z,6.70
2017-10-19T13:35:28.536Z,5.90
2017-10-19T13:37:57.924Z,6.53
2017-10-19T13:40:27.130Z,6.13
2017-10-19T13:42:56.384Z,6.10
2017-10-19T13:45:26.379Z,6.00
2017-10-19T13:47:55.646Z,5.87
2017-10-19T13:50:24.827Z,5.90
2017-10-19T13:52:54.026Z,6.07
2017-10-19T13:55:23.257Z,5.80
2017-10-19T13:57:52.589Z,5.33
2017-10-19T14:00:21.795Z,5.60
2017-10-19T14:02:51.287Z,5.60
2017-10-19T14:05:20.494Z,5.90
2017-10-19T14:07:50.463Z,6.50
2017-10-19T14:10:19.704Z,6.27
2017-10-19T14:12:49.692Z,7.00
2017-10-19T14:15:18.907Z,6.77
2017-10-19T14:17:49.677Z,6.40
2017-10-19T14:20:18.863Z,6.70
2017-10-19T14:22:48.131Z,6.67
2017-10-19T14:25:17.328Z,6.63
2017-10-19T14:27:46.533Z,5.77
2017-10-19T14:30:17.020Z,6.10
2017-10-19T14:32:46.539Z,7.07
2017-10-19T14:35:15.741Z,5.93
2017-10-19T14:37:45.045Z,5.60
2017-10-19T14:40:14.252Z,5.97
2017-10-19T14:42:43.455Z,5.40
2017-10-19T14:45:13.477Z,5.70
2017-10-19T14:47:42.694Z,5.87
2017-10-19T14:50:12.658Z,5.70
2017-10-19T14:52:42.021Z,6.33
2017-10-19T14:55:11.273Z,5.90
2017-10-19T14:57:40.479Z,5.90
2017-10-19T15:00:10.477Z,6.60
2017-10-19T15:02:39.901Z,6.50
2017-10-19T15:05:09.335Z,5.93
2017-10-19T15:07:40.004Z,5.97
2017-10-19T15:10:10.187Z,6.10
2017-10-19T15:12:39.411Z,6.20
2017-10-19T15:15:08.622Z,6.97
2017-10-19T15:17:37.870Z,6.40
2017-10-19T15:20:07.826Z,6.10
2017-10-19T15:22:37.024Z,5.80
2017-10-19T15:25:06.276Z,5.63
2017-10-19T15:27:35.497Z,5.93
2017-10-19T15:30:04.699Z,5.80
2017-10-19T15:32:33.966Z,6.57
2017-10-19T15:35:03.962Z,5.80
2017-10-19T15:37:33.280Z,6.77
2017-10-19T15:40:03.346Z,6.80
2017-10-19T15:42:32.555Z,6.60
2017-10-19T15:45:01.757Z,6.70
2017-10-19T15:47:31.077Z,7.47
2017-10-19T15:50:00.305Z,6.00
2017-10-19T15:52:29.521Z,6.10
2017-10-19T15:54:59.640Z,6.70
2017-10-19T15:57:28.843Z,7.20
2017-10-19T15:59:58.069Z,6.93
2017-10-19T16:02:27.301Z,6.37
2017-10-19T16:04:56.512Z,6.50
2017-10-19T16:07:26.475Z,7.10
2017-10-19T16:09:55.679Z,7.50
2017-10-19T16:12:24.911Z,7.27
2017-10-19T16:14:54.907Z,7.80
2017-10-19T16:17:24.311Z,6.70
2017-10-19T16:19:54.506Z,6.63
2017-10-19T16:22:23.707Z,6.07
2017-10-19T16:24:54.416Z,6.40
2017-10-19T16:27:25.519Z,8.03
2017-10-19T16:29:55.482Z,6.60
2017-10-19T16:32:24.717Z,7.67
2017-10-19T16:34:54.692Z,7.97
2017-10-19T16:37:23.936Z,8.63
2017-10-19T16:39:54.121Z,8.03
2017-10-19T16:42:23.319Z,8.53
2017-10-19T16:44:52.547Z,9.50
2017-10-19T16:47:21.745Z,7.37
2017-10-19T16:49:51.759Z,7.53
2017-10-19T16:52:21.745Z,9.07
2017-10-19T16:54:50.959Z,8.30
2017-10-19T16:57:20.181Z,7.23
2017-10-19T16:59:49.416Z,8.67
2017-10-19T17:02:18.634Z,8.60
2017-10-19T17:04:47.884Z,8.13
2017-10-19T17:07:18.028Z,8.30
2017-10-19T17:09:47.325Z,8.87
2017-10-19T17:12:16.529Z,8.67
2017-10-19T17:14:45.749Z,8.70
2017-10-19T17:17:14.951Z,8.60
2017-10-19T17:19:44.173Z,10.00
2017-10-19T17:22:14.157Z,10.00
2017-10-19T17:24:43.444Z,8.20
2017-10-19T17:27:12.677Z,7.93
2017-10-19T17:29:41.888Z,8.60
2017-10-19T17:32:11.859Z,9.07
2017-10-19T17:34:41.097Z,8.97
2017-10-19T17:37:10.269Z,8.30
2017-10-19T17:39:39.481Z,9.53
2017-10-19T17:42:09.481Z,9.40
2017-10-19T17:44:38.748Z,9.47
2017-10-19T17:47:08.728Z,8.37
2017-10-19T17:49:37.953Z,8.90
2017-10-19T17:52:07.216Z,9.10
2017-10-19T17:54:37.191Z,8.90
2017-10-19T17:57:06.487Z,8.53
2017-10-19T17:59:35.715Z,8.63
2017-10-19T18:02:05.045Z,8.17
2017-10-19T18:04:34.277Z,8.33
2017-10-19T18:07:03.504Z,9.27
2017-10-19T18:09:32.723Z,8.90
2017-10-19T18:12:02.743Z,9.10
2017-10-19T18:14:31.996Z,9.63
2017-10-19T18:17:01.221Z,8.60
2017-10-19T18:19:30.629Z,9.10
2017-10-19T18:21:59.859Z,9.13
2017-10-19T18:24:29.188Z,9.60
2017-10-19T18:26:58.409Z,8.80
2017-10-19T18:29:27.671Z,9.53
2017-10-19T18:31:56.924Z,9.80
2017-10-19T18:34:26.142Z,9.43
2017-10-19T18:36:56.184Z,8.80
2017-10-19T18:39:25.493Z,9.90
2017-10-19T18:41:54.739Z,9.60
2017-10-19T18:44:24.724Z,9.33
2017-10-19T18:46:54.025Z,9.60
2017-10-19T18:49:23.372Z,9.50
2017-10-19T18:51:53.403Z,9.60
2017-10-19T18:54:22.657Z,9.80
2017-10-19T18:56:51.858Z,9.90
2017-10-19T18:59:21.092Z,8.53
2017-10-19T19:01:50.405Z,9.73
2017-10-19T19:04:19.674Z,10.30
2017-10-19T19:06:49.668Z,9.63
2017-10-19T19:09:18.918Z,10.20
2017-10-19T19:11:48.383Z,9.87
2017-10-19T19:14:18.411Z,10.27
2017-10-19T19:16:47.651Z,8.70
2017-10-19T19:19:16.890Z,9.17
2017-10-19T19:21:46.134Z,8.77
2017-10-19T19:24:15.684Z,8.27
2017-10-19T19:26:44.914Z,9.20
2017-10-19T19:29:14.942Z,9.20
2017-10-19T19:31:44.206Z,9.43
2017-10-19T19:34:13.418Z,9.97
2017-10-19T19:36:43.749Z,9.20
2017-10-19T19:39:13.775Z,9.73
2017-10-19T19:41:43.747Z,9.70
2017-10-19T19:44:12.964Z,8.87
2017-10-19T19:46:42.974Z,10.27
2017-10-19T19:49:12.997Z,9.20
2017-10-19T19:51:42.204Z,9.90
2017-10-19T19:54:11.439Z,9.50
2017-10-19T19:56:40.679Z,9.97
2017-10-19T19:59:09.963Z,10.10
2017-10-19T20:01:39.255Z,10.20
2017-10-19T20:04:08.504Z,10.90
2017-10-19T20:06:37.752Z,9.93
2017-10-19T20:09:06.988Z,9.77
2017-10-19T20:11:36.960Z,10.40
2017-10-19T20:14:06.272Z,8.97
2017-10-19T20:16:35.565Z,10.00
2017-10-19T20:19:04.843Z,8.60
2017-10-19T20:21:34.102Z,9.27
2017-10-19T20:24:03.302Z,8.63
2017-10-19T20:26:32.548Z,10.60
2017-10-19T20:29:01.832Z,9.47
2017-10-19T20:31:31.252Z,10.33
2017-10-19T20:34:00.444Z,10.37
2017-10-19T20:36:29.672Z,10.43
2017-10-19T20:38:58.888Z,10.13
2017-10-19T20:41:28.904Z,11.47
2017-10-19T20:43:58.924Z,12.00
2017-10-19T20:46:28.908Z,11.20
2017-10-19T20:48:58.208Z,10.93
2017-10-19T20:51:27.445Z,10.60
2017-10-19T20:53:56.667Z,10.83
2017-10-19T20:56:26.046Z,9.93
2017-10-19T20:58:55.281Z,10.10
2017-10-19T21:01:24.545Z,10.43
2017-10-19T21:03:53.767Z,9.47
2017-10-19T21:06:22.991Z,9.83
2017-10-19T21:08:52.232Z,9.77
2017-10-19T21:11:22.240Z,10.13
2017-10-19T21:13:52.246Z,11.50
2017-10-19T21:16:21.456Z,9.90
2017-10-19T21:18:51.426Z,10.80
2017-10-19T21:21:20.671Z,10.70
2017-10-19T21:23:50.652Z,10.17
2017-10-19T21:26:19.876Z,9.90
2017-10-19T21:28:49.864Z,10.20
2017-10-19T21:31:19.084Z,10.20
2017-10-19T21:33:48.283Z,9.90
2017-10-19T21:36:18.483Z,10.10
2017-10-19T21:38:47.836Z,9.30
2017-10-19T21:41:17.043Z,9.10
2017-10-19T21:43:46.254Z,9.67
2017-10-19T21:46:15.457Z,9.50
2017-10-19T21:48:44.668Z,9.50
2017-10-19T21:51:13.888Z,9.90
2017-10-19T21:53:43.095Z,10.33
2017-10-19T21:56:13.096Z,10.73
2017-10-19T21:58:42.376Z,9.43
2017-10-19T22:01:11.617Z,10.90
2017-10-19T22:03:41.176Z,10.80
2017-10-19T22:06:29.103Z,11.53
2017-10-19T22:08:58.289Z,9.63
2017-10-19T22:11:27.680Z,10.00
2017-10-19T22:13:56.885Z,9.70
2017-10-19T22:16:26.114Z,8.97
2017-10-19T22:18:55.331Z,9.60
2017-10-19T22:21:24.524Z,8.70
2017-10-19T22:23:54.508Z,9.47
2017-10-19T22:26:23.724Z,8.17
2017-10-19T22:28:54.456Z,9.00
2017-10-19T22:31:23.667Z,8.63
2017-10-19T22:33:54.384Z,7.70
2017-10-19T22:36:25.087Z,7.97
2017-10-19T22:38:54.373Z,7.43
2017-10-19T22:41:23.729Z,7.30
2017-10-19T22:43:52.962Z,7.73
2017-10-19T22:46:22.156Z,8.17
2017-10-19T22:48:51.370Z,7.83
2017-10-19T22:51:20.584Z,8.37
2017-10-19T22:53:49.795Z,8.13
2017-10-19T22:56:18.992Z,7.63
2017-10-19T22:58:48.174Z,7.27
2017-10-19T23:01:17.624Z,7.63
2017-10-19T23:03:47.589Z,7.50
2017-10-19T23:06:16.819Z,7.87
2017-10-19T23:08:46.015Z,6.87
2017-10-19T23:11:15.215Z,7.50
2017-10-19T23:13:44.440Z,7.90
2017-10-19T23:16:14.520Z,7.60
2017-10-19T23:18:43.738Z,7.40
2017-10-19T23:21:12.940Z,7.60
2017-10-19T23:23:42.180Z,6.90
2017-10-19T23:26:11.407Z,7.10
2017-10-19T23:28:40.645Z,7.33
2017-10-19T23:31:10.618Z,7.30
2017-10-19T23:33:40.669Z,6.90
2017-10-19T23:36:09.887Z,6.40
2017-10-19T23:38:39.084Z,7.40
2017-10-19T23:41:08.305Z,6.87
2017-10-19T23:43:39.175Z,7.50
2017-10-19T23:46:08.369Z,7.60
2017-10-19T23:48:37.619Z,7.70
2017-10-19T23:51:06.812Z,6.77
2017-10-19T23:53:36.027Z,6.57
2017-10-19T23:56:05.220Z,6.13
2017-10-19T23:58:34.413Z,7.40
